Check time and date!

LGTT 152030Z 00000KT 9999 FEW020 BKN025 12/11 Q1013 RMK FEW180
TAF LGTT 151000Z 1512/1521 15010KT 9999 FEW020 SCT025 PROB30 TEMPO 1518/1521 5000 RA FEW012 BKN020 BECMG 1519/1521 VRB05KT
--------------------------------------
LGMG 151500Z 14005G18KT 9999 FEW015 SCT025 17/13 Q1013 RMK BKN070
TAF LGMG 151000Z 1512/1521 16012KT 9000 FEW012 SCT025 TEMPO 1512/1515 16012G22KT PROB30 TEMPO 1512/1521 5000 RA FEW012 BKN025 BECMG 1519/1521 VRB05KT
--------------------------------------
LGTG 152050Z 00000KT 9999 FEW020TCU SCT030 09/09 Q1013 RMK BKN080 BKN180
--------------------------------------
LGEL 152050Z 00000KT 9999 FEW020 SCT030 BKN070 15/10 Q1012 RMK SCT180
TAF LGEL 151700Z 1518/1618 15015KT 9999 SCT020 SCT070 PROB40 TEMPO 1518/1612 5000 RA FEW010 FEW020TCU BKN020 PROB30 TEMPO 1518/1606 3000 TSRA FEW010 FEW018CB BKN020 BKN070
--------------------------------------
LGAV 152050Z 01004KT 9999 FEW020 BKN070 12/09 Q1013 RMK QNH1013.4 BKN180 NOSIG
TAF LGAV 151700Z 1518/1618 18013KT 9999 SCT030 SCT070 PROB40 TEMPO 1520/1612 5000 RA FEW015 FEW020TCU BKN025 PROB40 TEMPO 1520/1606 3000 TSRA FEW010 FEW018CB BKN020 BKN070
--------------------------------------
LGAT 152030Z AUTO 15006KT 010V170 //// // ////// 16/11 Q1012 RE//
--------------------------------------
METAR LGAD 152050Z 11010KT 9999 FEW020 SCT080 12/08 Q1011
METAR LGAV 152050Z 01004KT 9999 FEW020 BKN070 12/09 Q1013 NOSIG
METAR LGBL 152050Z 32007KT 7000 SCT010 BKN030 09/08 Q1013
METAR LGEL 152050Z 00000KT 9999 FEW020 SCT030 BKN070 15/10 Q1012
METAR LGIR 152050Z 14013KT 9999 FEW020 17/13 Q1013 NOSIG
METAR LGKL 152050Z AUTO 31004KT 280V350 //// // ////// 11/10 Q1012 RERA
METAR LGKO 152050Z 16014KT 9999 FEW018CB BKN025 17/13 Q1016
METAR LGKP 152050Z AUTO 12018KT //// // ////// 18/14 Q1016 RE//
METAR LGKR 152050Z 10005KT CAVOK 13/10 Q1011 NOSIG
METAR LGLM 152050Z 13013KT 9999 VCTS FEW010 FEW020CB SCT025 14/12 Q1014
METAR LGLR 151950Z 00000KT 3000 BR SCT010 OVC025 09/08 Q1014 YLO
METAR LGMT 151950Z VRB03KT 9999 -RA SCT020TCU 14/11 Q1017
METAR LGPA 152050Z AUTO 14014KT //// // ////// 16/14 Q1013 RE//
METAR LGPZ 152050Z 06013KT 9999 FEW025 SCT070 11/08 Q1012
METAR LGRP 152050Z 08008KT 9999 FEW018TCU SCT025 18/14 Q1017 NOSIG
METAR LGRX 152050Z 07007KT 9999 FEW018TCU SCT025 11/10 Q1011
METAR LGSA 152050Z 13018KT 9999 SCT025 BKN080 17/12 Q1011
METAR LGSO 152050Z AUTO 14017KT //// // ////// 16/13 Q1013 RE//
METAR LGSR 152050Z AUTO 36013KT //// -RA ////// 16/13 Q1014 RE//
METAR LGTG 151950Z VRB03KT 9999 SCT030 09/08 Q1013 RMK BKN080 BKN180 BLU
METAR LGTS 152050Z 00000KT 0500 R16/1600 R34/1400 FG BKN002 OVC020 10/09 Q1013 NOSIG

--------------------------------------
TAF LGAD 152000Z 1521/1606 16010KT 9999 SCT020 BKN080 TEMPO 1521/1606 6000 RA FEW010 BKN020 OVC080 PROB40 TEMPO 1521/1606 4000 TSRA FEW018CB BKN020 OVC080
TAF LGAL 152000Z 1521/1606 10010KT 9999 FEW012 FEW015TCU SCT020 TEMPO 1521/1606 5000 RA SCT015 BKN025 PROB30 TEMPO 1521/1601 4000 TSRA SCT010 FEW018CB BKN020
TAF LGAV 151700Z 1518/1618 18013KT 9999 SCT030 SCT070 PROB40 TEMPO 1520/1612 5000 RA FEW015 FEW020TCU BKN025 PROB40 TEMPO 1520/1606 3000 TSRA FEW010 FEW018CB BKN020 BKN070
TAF LGBL 152000Z 1521/1606 VRB03KT 6000 SCT010 BKN025 BKN080 TEMPO 1521/1606 4000 RA PROB30 TEMPO 1601/1603 5000 SHRA FEW016CB BKN020 OVC080
TAF LGEL 151700Z 1518/1618 15015KT 9999 SCT020 SCT070 PROB40 TEMPO 1518/1612 5000 RA FEW010 FEW020TCU BKN020 PROB30 TEMPO 1518/1606 3000 TSRA FEW010 FEW018CB BKN020 BKN070
TAF LGHI 152000Z 1521/1606 15012G22KT 9999 FEW018TCU BKN025 PROB40 TEMPO 1521/1605 5000 RA PROB40 TEMPO 1521/1603 3000 TSRA SCT014 FEW018CB BKN020
TAF LGIO 152000Z 1521/1606 VRB03KT 6000 SCT008 BKN030 BKN080 PROB40 TEMPO 1521/1606 4000 RA SCT006 BKN025 OVC070 PROB40 1600/1606 0500 FG OVC004
TAF LGIR 151700Z 1518/1618 17015KT 9999 SCT020 SCT080 BECMG 1610/1612 29010KT PROB40 TEMPO 1519/1612 5000 RA FEW018TCU BKN020 BKN070 PROB30 TEMPO 1520/1603 3000 TSRA FEW010 FEW018CB BKN020 BKN070
TAF LGKC 152000Z 1521/1606 20015KT 9999 FEW010 FEW020TCU SCT030 TEMPO 1521/1606 5000 RA PROB40 TEMPO 1521/1603 3000 TSRA SCT010 FEW018CB BKN020
TAF LGKF 152000Z 1521/1606 13010KT 9999 SCT006 FEW015TCU SCT020 BKN070 TEMPO 1521/1606 5000 RA PROB40 TEMPO 1521/1602 3000 TSRA SCT010 SCT018CB BKN020 BKN070 BECMG 1600/1602 30015KT
TAF LGKL 152000Z 1521/1606 15020KT 8000 SCT020 BKN080 TEMPO 1521/1606 8000 RA FEW010 BKN020 OVC080 PROB40 TEMPO 1521/1606 5000 TSRA FEW016CB BKN020 OVC080 BECMG 1601/1603 34010KT
TAF LGKO 151700Z 1518/1618 16020KT 9999 FEW018 SCT025 PROB40 TEMPO 1518/1618 5000 RA SCT015 BKN020 PROB40 TEMPO 1518/1615 3000 TSRA SCT010 FEW018CB BKN020
TAF LGKP 152000Z 1521/1606 14018G28KT 9999 FEW010 SCT020 BKN060 PROB30 TEMPO 1521/1606 8000 RA PROB30 TEMPO 1521/1606 4000 TSRA FEW010 FEW018CB BKN020
TAF LGKR 151700Z 1518/1618 13010KT 9999 SCT012 BKN025 OVC070 PROB40 TEMPO 1518/1606 5000 RA PROB30 TEMPO 1518/1603 3000 TSRA SCT010 FEW018CB BKN020 OVC070 BECMG 1601/1603 32015KT BECMG 1609/1611 FEW020
TAF LGKV 152000Z 1521/1606 05010KT 9999 FEW008 FEW015TCU SCT025 BKN070 TEMPO 1521/1606 5000 RA PROB30 TEMPO 1521/1603 4000 TSRA SCT008 FEW018CB BKN020 OVC070 TEMPO 1521/1524 18010G20KT
TAF LGLM 152000Z 1521/1606 16015G25KT 9999 FEW010 BKN020 TEMPO 1521/1606 6000 RA PROB40 TEMPO 1521/1606 4000 TSRA FEW010 FEW018CB BKN020
TAF LGLR 152000Z 1521/1606 VRB03KT 4000 BR SCT010 OVC025 TEMPO 1521/1606 3000 RA PROB30 TEMPO 1601/1603 5000 SHRA FEW016CB BKN020 OVC080
TAF LGMK 152000Z 1521/1606 15016KT 9999 FEW015 BKN025 TEMPO 1600/1606 5000 RA PROB40 TEMPO 1601/1606 3000 TSRA FEW010 FEW018CB BKN020
TAF LGMT 152000Z 1521/1606 13012KT 9999 FEW010 SCT020TCU TEMPO 1521/1603 5000 RA PROB40 TEMPO 1521/1524 3000 TSRA SCT014 FEW018CB BKN020
TAF LGPZ 151700Z 1518/1618 VRB05KT 9999 FEW018TCU BKN020 BKN070 PROB40 TEMPO 1518/1609 5000 RA PROB40 TEMPO 1518/1603 3000 TSRA SCT010 FEW018CB BKN020 OVC070 BECMG 1610/1612 29015KT
TAF LGRP 151700Z 1518/1618 12017KT 9999 FEW010 SCT018 TEMPO 1518/1610 12017G27KT PROB40 TEMPO 1518/1618 5000 RA SCT010 BKN025 PROB40 TEMPO 1520/1615 3000 TSRA SCT010 FEW018CB BKN020
TAF LGRX 152000Z 1521/1606 14010KT 9999 SCT020 BKN080 TEMPO 1521/1606 6000 RA FEW010 BKN020 OVC080 PROB40 1521/1606 5000 TSRA FEW016CB BKN020 OVC080
TAF LGSA 151700Z 1518/1618 14015KT 9999 SCT020 SCT080 BECMG 1601/1603 VRB05KT BECMG 1610/1612 28015KT PROB40 TEMPO 1518/1612 5000 RA FEW018TCU BKN020 BKN070 PROB40 TEMPO 1518/1603 3000 TSRA FEW010 FEW018CB BKN020 BKN070
TAF LGSK 152000Z 1521/1606 13008KT 9999 SCT010 BKN030 PROB40 TEMPO 1602/1606 5000 RA
TAF LGSM 152000Z 1521/1606 15016KT 9999 FEW018 BKN025 TEMPO 1521/1606 5000 RA PROB40 TEMPO 1521/1605 3000 TSRA SCT012 FEW018CB BKN020
TAF LGSR 151700Z 1518/1618 17017KT 9999 FEW020TCU PROB30 TEMPO 1520/1610 5000 RA FEW018TCU BKN020 PROB30 TEMPO 1520/1609 4000 TSRA FEW018CB BKN020 BECMG 1607/1609 26010KT
TAF LGST 152000Z 1521/1606 18010G20KT 9999 FEW018 BKN025 PROB40 TEMPO 1523/1606 5000 RA PROB30 TEMPO 1600/1603 3000 TSRA FEW010 FEW018CB BKN020 BKN080
TAF LGSY 152000Z 1521/1606 19012G22KT 9999 FEW010 SCT020 TEMPO 1521/1606 6000 RA FEW010 BKN020 PROB40 TEMPO 1521/1606 4000 TSRA FEW010 FEW018CB BKN020
TAF LGTG 152000Z 1521/1606 16008KT 9999 FEW010 SCT030 BKN070 TEMPO 1521/1606 4000 RA PROB30 TEMPO 1521/1606 5000 TSRA FEW016CB BKN020 OVC080
TAF LGTL 152000Z 1521/1606 19015G28KT 9999 FEW016 SCT020 BKN080 PROB40 TEMPO 1521/1606 8000 RA FEW016 BKN020 OVC080 PROB30 TEMPO 1521/1606 4000 TSRA FEW010 FEW018CB BKN020 OVC080
TAF LGTS 151700Z 1518/1618 VRB03KT 2000 BR SCT005 BKN020 PROB40 TEMPO 1518/1609 0600 FG BKN004 OVC020 PROB40 TEMPO 1518/1618 3000 RA SCT005 BKN020 BECMG 1612/1614 35015G25KT 8000 SCT010 BKN025
TAF LGZA 152000Z 1521/1606 13010KT 9999 SCT014 FEW016TCU BKN018 TEMPO 1521/1606 5000 RA PROB40 TEMPO 1521/1602 3000 TSRA SCT012 SCT018CB BKN020 BKN070 BECMG 1600/1602 30015KT